Time;durP1;ratioP1;P1;durP2;ratioP2;P2;SDS_P1;SDS_P2;PMS_P1;PMS_P2;Temp;Humidity;BMP_temperature;BMP_pressure;BME280_temperature;BME280_humidity;BME280_pressure;Samples;Min_cycle;Max_cycle;Signal;HPM_P1;HPM_P2
2023/01/12 00:01:10;;;;;;;3.83;1.27;;;11.70;99.90;;;;;;4918327;29;20182;-72
2023/01/12 00:03:38;;;;;;;3.42;1.20;;;11.70;99.90;;;;;;4921124;29;20326;-72
2023/01/12 00:06:10;;;;;;;3.70;1.17;;;11.60;99.90;;;;;;4920824;29;20214;-72
2023/01/12 00:08:36;;;;;;;5.57;1.20;;;11.70;99.90;;;;;;4929443;29;20180;-69
2023/01/12 00:11:04;;;;;;;3.83;1.20;;;11.70;99.90;;;;;;4939852;29;20177;-72
2023/01/12 00:13:33;;;;;;;3.40;1.20;;;11.70;99.90;;;;;;4939724;29;20181;-72
2023/01/12 00:18:46;;;;;;;4.60;1.17;;;11.70;99.90;;;;;;4920602;29;20342;-71
2023/01/12 00:21:12;;;;;;;3.78;1.10;;;11.70;99.90;;;;;;4920866;29;20201;-70
2023/01/12 00:23:38;;;;;;;2.35;1.13;;;11.70;99.90;;;;;;4921050;29;20194;-72
2023/01/12 00:26:07;;;;;;;2.75;1.17;;;11.70;99.90;;;;;;4926913;29;20181;-70
2023/01/12 00:28:36;;;;;;;2.47;1.00;;;11.70;99.90;;;;;;4922023;29;20178;-70
2023/01/12 00:31:09;;;;;;;2.17;0.88;;;11.60;99.90;;;;;;4920843;29;20213;-71
2023/01/12 00:33:36;;;;;;;3.33;1.20;;;11.70;99.90;;;;;;4922337;29;20174;-71
2023/01/12 00:36:10;;;;;;;4.80;1.20;;;11.70;99.90;;;;;;4922675;29;20280;-72
2023/01/12 00:38:37;;;;;;;3.78;1.00;;;11.70;99.90;;;;;;4933911;28;20252;-68
2023/01/12 00:41:06;;;;;;;3.15;1.20;;;11.70;99.90;;;;;;4943531;28;20214;-69
2023/01/12 00:46:27;;;;;;;2.92;1.13;;;11.70;99.90;;;;;;4944291;28;20157;-67
2023/01/12 00:48:53;;;;;;;5.07;0.98;;;11.70;99.90;;;;;;4939976;28;20194;-68
2023/01/12 00:51:19;;;;;;;4.00;1.10;;;11.70;99.90;;;;;;4934862;29;20201;-66
2023/01/12 00:53:46;;;;;;;2.72;1.10;;;11.70;99.90;;;;;;4943418;28;20213;-66
2023/01/12 00:56:17;;;;;;;3.65;1.00;;;11.70;99.90;;;;;;4943601;28;20173;-68
2023/01/12 00:58:47;;;;;;;3.33;1.05;;;11.70;99.90;;;;;;4922824;29;20280;-70
2023/01/12 01:01:13;;;;;;;3.58;0.90;;;11.70;99.90;;;;;;4921785;29;20265;-71
2023/01/12 01:03:39;;;;;;;4.78;1.20;;;11.70;99.90;;;;;;4921569;29;20255;-71
2023/01/12 01:06:10;;;;;;;3.80;0.90;;;11.60;99.90;;;;;;4921371;29;20289;-70
2023/01/12 01:08:38;;;;;;;1.80;1.00;;;11.70;99.90;;;;;;4902500;29;20175;-71
2023/01/12 01:11:07;;;;;;;2.97;1.00;;;11.70;99.90;;;;;;4900482;29;20183;-70
2023/01/12 01:13:35;;;;;;;3.78;0.88;;;11.60;99.90;;;;;;4915075;29;20178;-71
2023/01/12 01:16:02;;;;;;;3.13;1.00;;;11.60;99.90;;;;;;4912412;29;20178;-71
2023/01/12 01:18:33;;;;;;;5.10;1.30;;;11.60;99.90;;;;;;4919575;29;20198;-70
2023/01/12 01:21:02;;;;;;;2.90;0.90;;;11.60;99.90;;;;;;4919335;29;20182;-71
2023/01/12 01:23:30;;;;;;;2.67;1.17;;;11.60;99.90;;;;;;4919096;29;20174;-70
2023/01/12 01:26:04;;;;;;;3.90;1.25;;;11.60;99.90;;;;;;4919508;29;20206;-68
2023/01/12 01:28:31;;;;;;;3.10;0.80;;;11.60;99.90;;;;;;4900576;29;20174;-69
2023/01/12 01:31:19;;;;;;;2.63;0.90;;;11.60;99.90;;;;;;4901005;29;20239;-71
2023/01/12 01:33:44;;;;;;;2.72;1.00;;;11.60;99.90;;;;;;4919078;29;20185;-70
2023/01/12 01:36:13;;;;;;;4.03;1.00;;;11.60;99.90;;;;;;4919242;29;20182;-70
2023/01/12 01:38:39;;;;;;;5.28;1.13;;;11.60;99.90;;;;;;4919101;29;20198;-69
2023/01/12 01:41:08;;;;;;;3.75;1.13;;;11.60;99.90;;;;;;4934199;29;20243;-71
2023/01/12 01:44:25;;;;;;;3.28;0.93;;;11.60;99.90;;;;;;4922448;29;20182;-71
2023/01/12 01:46:59;;;;;;;2.08;0.80;;;11.60;99.90;;;;;;4869434;29;20214;-71
2023/01/12 01:49:37;;;;;;;2.90;0.90;;;11.60;99.90;;;;;;4910724;29;20225;-71
2023/01/12 01:52:11;;;;;;;4.57;1.10;;;11.60;99.90;;;;;;4918810;29;20209;-72
2023/01/12 01:57:10;;;;;;;3.20;1.15;;;11.60;99.90;;;;;;5016338;23;20329;-71
2023/01/12 01:59:41;;;;;;;2.22;0.85;;;11.50;99.90;;;;;;4899100;29;20289;-71
2023/01/12 02:02:07;;;;;;;3.88;1.13;;;11.50;99.90;;;;;;4899607;29;20261;-70
2023/01/12 02:04:33;;;;;;;2.45;0.90;;;11.50;99.90;;;;;;4898210;29;20179;-71
2023/01/12 02:07:03;;;;;;;2.50;0.75;;;11.50;99.90;;;;;;4899786;29;20372;-70
2023/01/12 02:09:31;;;;;;;3.35;1.20;;;11.50;99.90;;;;;;4899554;29;20546;-70
2023/01/12 02:17:58;;;;;;;2.17;0.95;;;11.50;99.90;;;;;;4900402;29;20197;-70
2023/01/12 02:20:48;;;;;;;3.03;1.10;;;11.50;99.90;;;;;;4909360;29;20218;-71
2023/01/12 02:23:44;;;;;;;2.50;0.70;;;11.50;99.90;;;;;;4899251;29;20503;-70
2023/01/12 02:26:51;;;;;;;2.53;0.90;;;11.50;99.90;;;;;;4903451;29;20221;-72
2023/01/12 02:29:34;;;;;;;3.10;0.80;;;11.50;99.90;;;;;;4896574;29;20172;-70
2023/01/12 02:32:23;;;;;;;3.10;0.93;;;11.50;99.90;;;;;;4912096;29;20225;-70
2023/01/12 02:35:12;;;;;;;2.40;1.27;;;11.50;99.90;;;;;;4894543;29;20210;-69
2023/01/12 02:37:47;;;;;;;2.25;0.80;;;11.50;99.90;;;;;;4921568;29;20187;-70
2023/01/12 02:40:27;;;;;;;1.85;0.73;;;11.50;99.90;;;;;;4904419;29;20213;-71
2023/01/12 02:43:08;;;;;;;2.17;0.70;;;11.60;99.90;;;;;;4899768;29;20198;-72
2023/01/12 02:45:58;;;;;;;2.17;0.70;;;11.60;99.90;;;;;;4892206;29;20197;-70
2023/01/12 02:48:31;;;;;;;2.28;0.90;;;11.60;99.90;;;;;;4896495;29;20191;-70
2023/01/12 02:51:31;;;;;;;2.85;0.80;;;11.60;99.90;;;;;;4906724;29;20194;-71
2023/01/12 02:54:12;;;;;;;1.90;0.77;;;11.60;99.90;;;;;;4912626;29;20214;-71
2023/01/12 02:56:54;;;;;;;2.30;0.80;;;11.60;99.90;;;;;;4895864;29;20286;-71
2023/01/12 02:59:23;;;;;;;2.65;0.85;;;11.60;99.90;;;;;;4897127;29;20190;-71
2023/01/12 03:01:52;;;;;;;2.50;0.90;;;11.70;99.90;;;;;;4900114;29;20209;-72
2023/01/12 03:04:19;;;;;;;2.08;0.80;;;11.70;99.90;;;;;;4899348;29;20179;-70
2023/01/12 03:07:04;;;;;;;3.85;0.82;;;11.80;99.90;;;;;;4898852;29;20202;-71
2023/01/12 03:09:40;;;;;;;3.65;1.05;;;11.70;99.90;;;;;;4899153;29;20186;-72
2023/01/12 03:12:14;;;;;;;2.85;0.80;;;11.70;99.90;;;;;;4898649;29;20487;-70
2023/01/12 03:14:44;;;;;;;2.88;0.60;;;11.70;99.90;;;;;;4880442;29;20206;-71
2023/01/12 03:17:18;;;;;;;2.10;0.80;;;11.70;99.90;;;;;;4880103;29;20214;-71
2023/01/12 03:19:45;;;;;;;3.08;0.90;;;11.70;99.90;;;;;;4888741;29;20182;-72
2023/01/12 03:22:14;;;;;;;3.47;1.08;;;11.80;99.90;;;;;;4895373;29;20286;-70
2023/01/12 03:24:46;;;;;;;5.30;1.13;;;11.70;99.90;;;;;;4901479;29;20246;-71
2023/01/12 03:27:25;;;;;;;2.55;0.80;;;11.80;99.90;;;;;;4880138;29;20199;-71
2023/01/12 03:30:02;;;;;;;4.05;1.00;;;11.80;99.90;;;;;;4891164;29;20182;-71
2023/01/12 03:32:29;;;;;;;2.70;0.90;;;11.80;99.90;;;;;;4898862;29;20174;-70
2023/01/12 03:34:54;;;;;;;4.03;0.93;;;11.80;99.90;;;;;;4898749;29;20210;-71
2023/01/12 03:37:35;;;;;;;4.13;1.00;;;11.80;99.90;;;;;;4901588;29;20182;-73
2023/01/12 03:40:11;;;;;;;3.13;1.00;;;11.80;99.90;;;;;;4902758;29;20189;-71
2023/01/12 03:42:50;;;;;;;3.30;0.98;;;11.80;99.90;;;;;;4902356;29;20216;-73
2023/01/12 03:45:15;;;;;;;2.00;0.90;;;11.90;99.90;;;;;;4902546;29;20270;-71
2023/01/12 03:47:42;;;;;;;5.43;1.02;;;11.90;99.90;;;;;;4902203;29;20285;-71
2023/01/12 03:50:19;;;;;;;2.60;0.90;;;11.90;99.90;;;;;;4905049;29;20174;-70
2023/01/12 03:52:46;;;;;;;2.47;0.80;;;11.90;99.90;;;;;;4902196;29;21243;-71
2023/01/12 03:55:18;;;;;;;2.13;0.80;;;11.90;99.90;;;;;;4902123;29;20237;-72
2023/01/12 03:57:45;;;;;;;4.35;1.20;;;11.90;99.90;;;;;;4902120;29;20175;-70
2023/01/12 04:00:13;;;;;;;4.97;1.10;;;11.80;99.90;;;;;;4902298;29;20182;-71
2023/01/12 04:02:42;;;;;;;2.50;1.00;;;11.80;99.90;;;;;;4902070;29;20292;-71
2023/01/12 04:05:09;;;;;;;3.25;0.95;;;11.80;99.90;;;;;;4899119;29;20317;-71
2023/01/12 04:07:34;;;;;;;4.15;1.13;;;11.80;99.90;;;;;;4883344;29;20227;-72
2023/01/12 04:10:00;;;;;;;2.53;0.95;;;11.80;99.90;;;;;;4883453;29;20179;-71
2023/01/12 04:12:25;;;;;;;3.58;1.00;;;11.80;99.90;;;;;;4888675;29;20195;-71
2023/01/12 04:14:53;;;;;;;3.00;1.10;;;11.80;99.90;;;;;;4901423;29;20243;-70
2023/01/12 04:17:23;;;;;;;3.88;1.33;;;11.80;99.90;;;;;;4901670;29;20187;-71
2023/01/12 04:19:52;;;;;;;4.15;1.20;;;11.80;99.90;;;;;;4901304;29;20183;-71
2023/01/12 04:25:03;;;;;;;4.55;1.27;;;11.70;99.90;;;;;;4898929;29;20185;-70
2023/01/12 04:27:28;;;;;;;4.40;1.10;;;11.70;99.90;;;;;;4901542;29;20207;-71
2023/01/12 04:29:55;;;;;;;3.15;1.40;;;11.60;99.90;;;;;;4901737;29;20189;-72
2023/01/12 04:32:21;;;;;;;3.38;1.25;;;11.60;99.90;;;;;;4901456;29;20190;-71
2023/01/12 04:34:49;;;;;;;3.80;1.10;;;11.60;99.90;;;;;;4900467;29;20459;-71
2023/01/12 04:37:14;;;;;;;4.22;1.52;;;11.60;99.90;;;;;;4907588;29;20191;-70
2023/01/12 04:39:40;;;;;;;2.90;1.20;;;11.60;99.90;;;;;;4914093;29;20277;-68
2023/01/12 04:42:59;;;;;;;3.03;1.13;;;11.60;99.90;;;;;;4912860;29;20262;-73
2023/01/12 04:44:51;;;;;;;3.08;1.20;;;11.60;99.90;;;;;;4907008;29;20185;-71
2023/01/12 04:47:17;;;;;;;3.15;1.00;;;11.60;99.90;;;;;;4900582;29;20175;-70
2023/01/12 04:49:47;;;;;;;3.05;0.90;;;11.60;99.90;;;;;;4901153;29;20211;-72
2023/01/12 04:52:12;;;;;;;3.28;1.00;;;11.60;99.90;;;;;;4900624;29;20187;-71
2023/01/12 04:54:38;;;;;;;2.10;1.00;;;11.50;99.90;;;;;;4901140;29;20179;-71
2023/01/12 04:57:08;;;;;;;3.20;1.20;;;11.60;99.90;;;;;;4896781;29;20278;-73
2023/01/12 04:59:36;;;;;;;3.40;1.35;;;11.60;99.90;;;;;;4913543;29;20190;-73
2023/01/12 05:02:02;;;;;;;4.68;1.30;;;11.60;99.90;;;;;;4903608;29;20285;-72
2023/01/12 05:04:30;;;;;;;3.85;1.10;;;11.60;99.90;;;;;;4891335;29;20206;-72
2023/01/12 05:06:58;;;;;;;3.47;1.10;;;11.50;99.90;;;;;;4889436;29;20428;-72
2023/01/12 05:12:12;;;;;;;3.67;0.88;;;11.60;99.90;;;;;;4894277;29;20246;-71
2023/01/12 05:14:38;;;;;;;2.45;1.10;;;11.60;99.90;;;;;;4896426;29;20202;-71
2023/01/12 05:17:06;;;;;;;2.60;1.00;;;11.60;99.90;;;;;;4897692;29;20388;-72
2023/01/12 05:19:32;;;;;;;1.50;0.93;;;11.50;99.90;;;;;;4900686;29;20224;-71
2023/01/12 05:22:00;;;;;;;3.00;1.08;;;11.50;99.90;;;;;;4900544;29;20291;-72
2023/01/12 05:24:25;;;;;;;3.60;1.13;;;11.50;99.90;;;;;;4900321;29;20182;-72
2023/01/12 05:29:27;;;;;;;3.20;1.25;;;11.50;99.90;;;;;;5805756;23;20319;-72
2023/01/12 05:31:57;;;;;;;4.05;1.20;;;11.50;99.90;;;;;;4911447;29;20194;-72
2023/01/12 05:34:25;;;;;;;2.85;1.05;;;11.60;99.90;;;;;;4897518;29;20191;-73
2023/01/12 05:36:50;;;;;;;1.63;0.80;;;11.50;99.90;;;;;;4882297;29;20178;-72
2023/01/12 05:39:20;;;;;;;2.65;0.85;;;11.60;99.90;;;;;;4881986;29;20179;-73
2023/01/12 05:44:29;;;;;;;2.78;0.93;;;11.50;99.90;;;;;;4897959;29;20189;-72
2023/01/12 05:46:55;;;;;;;2.58;0.70;;;11.50;99.90;;;;;;4900831;29;20163;-72
2023/01/12 05:49:20;;;;;;;3.88;1.70;;;11.50;99.90;;;;;;4901304;29;20269;-72
2023/01/12 05:51:46;;;;;;;3.45;1.08;;;11.50;99.90;;;;;;4900571;29;20182;-73
2023/01/12 05:54:14;;;;;;;1.10;0.70;;;11.40;99.90;;;;;;4900800;29;20218;-72
2023/01/12 05:56:39;;;;;;;2.08;0.88;;;11.40;99.90;;;;;;4893730;29;20278;-73
2023/01/12 05:59:05;;;;;;;2.83;0.90;;;11.30;99.90;;;;;;4881527;29;20183;-71
2023/01/12 06:01:33;;;;;;;2.95;1.27;;;11.20;99.90;;;;;;4896115;29;20239;-74
2023/01/12 06:04:00;;;;;;;1.20;0.80;;;11.10;99.90;;;;;;4919536;29;20198;-72
2023/01/12 06:06:31;;;;;;;2.67;0.95;;;11.00;99.90;;;;;;4907445;29;20230;-73
2023/01/12 06:09:00;;;;;;;3.60;0.85;;;10.90;99.90;;;;;;4900218;29;20193;-72
2023/01/12 06:14:10;;;;;;;3.72;0.85;;;10.80;99.90;;;;;;4889634;29;20222;-73
2023/01/12 06:16:37;;;;;;;3.28;1.00;;;10.80;99.90;;;;;;4900165;29;20206;-72
2023/01/12 06:19:05;;;;;;;2.28;1.00;;;10.70;99.90;;;;;;4900106;29;20178;-72
2023/01/12 06:21:34;;;;;;;1.63;0.80;;;10.70;99.90;;;;;;4899890;29;20237;-71
2023/01/12 06:24:00;;;;;;;3.03;0.95;;;10.50;99.90;;;;;;4899902;29;20178;-71
2023/01/12 06:26:26;;;;;;;2.50;1.00;;;10.60;99.90;;;;;;4900153;29;20194;-72
2023/01/12 06:28:52;;;;;;;2.75;1.05;;;10.60;99.90;;;;;;4899854;29;20182;-72
2023/01/12 06:31:22;;;;;;;2.55;1.08;;;10.50;99.90;;;;;;4899832;29;20178;-73
2023/01/12 06:33:48;;;;;;;2.17;0.88;;;10.60;99.90;;;;;;4880974;29;20203;-73
2023/01/12 06:36:15;;;;;;;2.33;0.73;;;10.50;99.90;;;;;;4897648;29;20245;-72
2023/01/12 06:38:46;;;;;;;2.00;0.63;;;10.50;99.90;;;;;;4899870;29;20186;-72
2023/01/12 06:43:59;;;;;;;1.70;0.50;;;10.60;99.90;;;;;;4893560;29;20221;-72
2023/01/12 06:46:26;;;;;;;1.73;0.63;;;10.70;99.90;;;;;;4899484;29;20183;-72
2023/01/12 06:48:55;;;;;;;2.58;0.80;;;10.60;99.90;;;;;;4898669;29;20210;-72
2023/01/12 06:51:21;;;;;;;1.45;0.50;;;10.70;99.90;;;;;;4896019;29;20179;-73
2023/01/12 06:53:46;;;;;;;0.98;0.60;;;10.70;99.90;;;;;;4910487;29;20206;-73
2023/01/12 06:56:12;;;;;;;1.35;0.50;;;10.70;99.90;;;;;;4915476;28;20203;-68
2023/01/12 06:58:37;;;;;;;0.93;0.57;;;10.80;99.90;;;;;;4915366;29;20199;-68
2023/01/12 07:01:05;;;;;;;1.35;0.60;;;10.80;99.90;;;;;;4909007;29;20187;-74
2023/01/12 07:03:33;;;;;;;0.95;0.70;;;10.90;99.90;;;;;;4881466;29;20230;-72
2023/01/12 07:05:59;;;;;;;1.27;0.60;;;10.90;99.90;;;;;;4896139;29;20186;-73
2023/01/12 07:08:26;;;;;;;1.25;0.60;;;10.90;99.90;;;;;;4896622;29;20233;-73
2023/01/12 07:10:53;;;;;;;1.48;0.55;;;11.00;99.90;;;;;;4903989;29;20189;-72
2023/01/12 07:13:19;;;;;;;1.63;0.57;;;11.00;99.90;;;;;;4898866;29;20455;-72
2023/01/12 07:15:45;;;;;;;2.13;0.60;;;11.00;99.90;;;;;;4899028;29;20193;-71
2023/01/12 07:18:13;;;;;;;1.17;0.70;;;10.90;99.90;;;;;;4899099;29;20178;-72
2023/01/12 07:20:44;;;;;;;1.95;0.75;;;10.90;99.90;;;;;;4899057;29;20187;-72
2023/01/12 07:23:10;;;;;;;1.65;0.50;;;10.80;99.90;;;;;;4899069;29;20232;-72
2023/01/12 07:25:35;;;;;;;1.80;0.75;;;10.70;99.90;;;;;;4891131;29;20199;-72
2023/01/12 07:28:01;;;;;;;1.35;0.60;;;10.70;99.90;;;;;;4895927;29;20186;-72
2023/01/12 07:30:29;;;;;;;1.13;0.52;;;10.70;99.90;;;;;;4895586;29;20219;-72
2023/01/12 07:33:04;;;;;;;1.00;0.50;;;10.70;99.90;;;;;;4898813;29;20194;-72
2023/01/12 07:35:29;;;;;;;2.42;0.63;;;10.60;99.90;;;;;;4898645;29;20235;-72
2023/01/12 07:37:55;;;;;;;3.13;0.90;;;10.80;99.90;;;;;;4898915;29;20183;-74
2023/01/12 07:40:21;;;;;;;1.60;0.55;;;10.60;99.90;;;;;;4895515;29;20207;-73
2023/01/12 07:42:46;;;;;;;2.05;0.68;;;10.60;99.90;;;;;;4880482;29;20499;-74
2023/01/12 07:45:14;;;;;;;2.30;0.73;;;10.50;99.90;;;;;;4897072;29;20264;-75
2023/01/12 07:47:40;;;;;;;2.20;0.70;;;10.50;99.90;;;;;;4901635;29;20225;-77
2023/01/12 07:50:09;;;;;;;4.28;0.88;;;10.50;99.90;;;;;;4918033;29;20182;-75
2023/01/12 07:52:36;;;;;;;1.90;0.70;;;10.60;99.90;;;;;;4905929;29;20250;-74
2023/01/12 07:55:07;;;;;;;3.33;0.80;;;10.50;99.90;;;;;;4880618;29;20186;-75
2023/01/12 07:57:33;;;;;;;2.40;0.77;;;10.50;99.90;;;;;;4895676;29;20188;-75
2023/01/12 07:59:58;;;;;;;2.33;0.82;;;10.60;99.90;;;;;;4880713;29;20190;-74
2023/01/12 08:02:24;;;;;;;2.97;0.80;;;10.50;99.90;;;;;;4892131;29;20201;-77
2023/01/12 08:04:53;;;;;;;3.05;0.98;;;10.50;99.90;;;;;;4899078;29;20209;-75
2023/01/12 08:07:21;;;;;;;2.78;0.70;;;10.60;99.90;;;;;;4898501;29;20342;-73
2023/01/12 08:09:47;;;;;;;2.65;0.90;;;10.60;99.90;;;;;;4899081;29;20182;-74
2023/01/12 08:12:12;;;;;;;2.03;0.80;;;10.60;99.90;;;;;;4882414;29;20214;-76
2023/01/12 08:14:42;;;;;;;4.15;0.90;;;10.60;99.90;;;;;;4895745;29;20187;-75
2023/01/12 08:17:21;;;;;;;2.28;0.80;;;10.70;99.90;;;;;;4895756;29;20199;-76
2023/01/12 08:19:59;;;;;;;2.80;0.80;;;10.70;99.90;;;;;;4898725;29;20187;-75
2023/01/12 08:22:32;;;;;;;3.08;0.65;;;10.80;99.90;;;;;;4900104;29;20218;-74
2023/01/12 08:25:10;;;;;;;4.28;0.90;;;10.90;99.90;;;;;;4895299;29;20265;-75
2023/01/12 08:27:39;;;;;;;2.85;0.63;;;10.90;99.90;;;;;;4920576;29;20193;-76
2023/01/12 08:30:07;;;;;;;1.73;0.63;;;10.90;99.90;;;;;;4898960;29;20459;-76
2023/01/12 08:32:35;;;;;;;2.35;0.70;;;11.00;99.90;;;;;;4883857;29;20215;-76
2023/01/12 08:35:02;;;;;;;3.95;0.65;;;10.90;99.90;;;;;;4902107;29;20486;-74
2023/01/12 08:37:29;;;;;;;3.33;1.15;;;11.00;99.90;;;;;;4901668;29;20241;-73
2023/01/12 08:39:56;;;;;;;2.00;0.70;;;10.90;99.90;;;;;;4901904;29;20182;-77
2023/01/12 08:42:26;;;;;;;1.73;0.80;;;11.00;99.90;;;;;;4901881;29;20222;-76
2023/01/12 08:44:53;;;;;;;2.35;0.70;;;11.00;99.90;;;;;;4901555;29;20238;-75
2023/01/12 08:47:21;;;;;;;1.42;0.68;;;11.00;99.90;;;;;;4901615;29;20213;-76
2023/01/12 08:49:52;;;;;;;1.98;0.50;;;11.00;99.90;;;;;;4901612;29;20227;-76
2023/01/12 08:52:18;;;;;;;3.58;0.55;;;11.00;99.90;;;;;;4901860;29;20303;-76
2023/01/12 08:54:44;;;;;;;1.20;0.70;;;11.30;99.90;;;;;;4901737;29;20234;-76
2023/01/12 08:57:10;;;;;;;2.58;0.80;;;11.10;99.90;;;;;;4899305;29;20266;-76
2023/01/12 08:59:36;;;;;;;3.40;0.70;;;11.10;99.90;;;;;;4893974;29;20206;-76
2023/01/12 09:02:02;;;;;;;0.98;0.68;;;11.20;99.90;;;;;;4896928;29;20191;-77
2023/01/12 09:04:28;;;;;;;1.15;0.60;;;11.30;99.90;;;;;;4882869;29;20214;-74
2023/01/12 09:06:56;;;;;;;0.85;0.45;;;11.30;99.90;;;;;;4893746;29;20179;-75
2023/01/12 09:09:21;;;;;;;1.73;0.32;;;11.30;99.90;;;;;;4901590;29;20230;-76
2023/01/12 09:11:48;;;;;;;2.33;0.50;;;11.30;99.90;;;;;;4901378;29;20194;-74
2023/01/12 09:14:18;;;;;;;0.75;0.50;;;11.30;99.90;;;;;;4901420;29;20207;-77
2023/01/12 09:16:43;;;;;;;1.48;0.40;;;11.30;99.90;;;;;;4901421;29;20179;-74
2023/01/12 09:19:09;;;;;;;2.10;0.52;;;11.30;99.90;;;;;;4901711;29;20193;-76
2023/01/12 09:21:37;;;;;;;1.67;0.40;;;11.40;99.90;;;;;;4916432;29;20241;-68
2023/01/12 09:24:08;;;;;;;1.17;0.50;;;11.40;99.90;;;;;;4923428;29;20186;-68
2023/01/12 09:26:39;;;;;;;2.15;0.40;;;11.40;99.90;;;;;;4915444;29;20266;-76
2023/01/12 09:29:09;;;;;;;0.43;0.38;;;11.50;99.90;;;;;;4902530;29;20213;-74
2023/01/12 09:31:39;;;;;;;0.80;0.50;;;11.50;99.90;;;;;;4901529;29;20195;-75
2023/01/12 09:34:05;;;;;;;0.68;0.40;;;11.50;99.90;;;;;;4900827;29;20183;-74
2023/01/12 09:36:35;;;;;;;0.60;0.40;;;11.50;99.90;;;;;;4901352;29;20178;-77
2023/01/12 09:39:04;;;;;;;1.10;0.50;;;11.50;99.90;;;;;;4901509;29;20175;-75
2023/01/12 09:47:39;;;;;;;0.57;0.30;;;11.50;99.90;;;;;;4901396;29;20330;-75
2023/01/12 09:50:12;;;;;;;0.73;0.40;;;11.40;99.90;;;;;;4900820;29;20183;-75
2023/01/12 09:52:40;;;;;;;0.95;0.50;;;11.40;99.90;;;;;;4900609;29;20291;-76
2023/01/12 09:55:14;;;;;;;1.90;0.60;;;11.40;99.90;;;;;;4900662;29;20265;-75
2023/01/12 09:57:51;;;;;;;1.85;0.45;;;11.30;99.90;;;;;;4900803;29;20203;-75
2023/01/12 10:00:19;;;;;;;0.50;0.45;;;11.30;99.90;;;;;;4900982;29;20197;-76
2023/01/12 10:03:04;;;;;;;1.15;0.40;;;11.30;99.90;;;;;;4900293;29;20198;-75
2023/01/12 10:05:39;;;;;;;1.40;0.47;;;11.40;99.90;;;;;;4900879;29;20171;-75
2023/01/12 10:08:15;;;;;;;0.50;0.30;;;11.30;99.90;;;;;;4901219;29;20179;-76
2023/01/12 10:10:54;;;;;;;1.25;0.40;;;11.40;99.90;;;;;;4907566;29;20246;-74
2023/01/12 10:13:21;;;;;;;0.82;0.45;;;11.40;99.90;;;;;;4900545;29;20203;-77
2023/01/12 10:16:01;;;;;;;1.05;0.50;;;11.40;99.90;;;;;;4900773;29;20182;-74
2023/01/12 10:18:37;;;;;;;0.90;0.50;;;11.40;99.90;;;;;;4897383;29;20199;-74
2023/01/12 10:21:11;;;;;;;1.30;0.45;;;11.50;99.90;;;;;;4898210;29;20190;-76
2023/01/12 10:23:39;;;;;;;0.82;0.40;;;11.50;99.90;;;;;;4900977;29;20278;-75
2023/01/12 10:26:17;;;;;;;1.10;0.50;;;11.60;99.90;;;;;;4901943;29;20179;-75
2023/01/12 10:28:48;;;;;;;0.57;0.50;;;11.60;99.90;;;;;;4899512;29;20281;-76
2023/01/12 10:31:24;;;;;;;0.95;0.40;;;11.60;99.90;;;;;;4911892;29;20242;-68
2023/01/12 10:34:06;;;;;;;1.02;0.35;;;11.70;99.90;;;;;;4930559;28;20226;-69
2023/01/12 10:36:35;;;;;;;0.98;0.47;;;11.60;99.90;;;;;;4915975;29;20170;-75
2023/01/12 10:39:03;;;;;;;0.55;0.43;;;11.70;99.90;;;;;;4913074;29;20218;-72
2023/01/12 10:41:37;;;;;;;0.52;0.32;;;11.80;99.90;;;;;;4918557;29;20163;-73
2023/01/12 10:44:12;;;;;;;1.17;0.40;;;11.90;99.90;;;;;;4920365;29;20215;-72
2023/01/12 10:46:38;;;;;;;1.83;0.50;;;11.90;99.90;;;;;;4920641;29;20178;-73
2023/01/12 10:49:25;;;;;;;1.60;0.50;;;12.00;99.90;;;;;;4920029;29;20211;-75
2023/01/12 10:52:08;;;;;;;0.22;0.22;;;12.10;99.90;;;;;;4895964;29;20164;-75
2023/01/12 10:54:37;;;;;;;0.95;0.40;;;12.10;99.90;;;;;;4881671;29;20210;-74
2023/01/12 10:57:15;;;;;;;1.92;0.50;;;12.20;99.90;;;;;;4881572;29;20182;-73
2023/01/12 10:59:55;;;;;;;1.10;0.60;;;12.30;99.90;;;;;;4904081;29;20191;-75
2023/01/12 11:02:24;;;;;;;0.93;0.60;;;12.40;99.90;;;;;;4881352;29;20227;-74
2023/01/12 11:04:53;;;;;;;0.60;0.45;;;12.30;99.90;;;;;;4881434;29;20282;-74
2023/01/12 11:07:28;;;;;;;0.98;0.30;;;12.50;99.90;;;;;;4899435;29;20266;-75
2023/01/12 11:09:58;;;;;;;0.73;0.50;;;12.50;99.90;;;;;;4899311;29;20202;-74
2023/01/12 11:12:29;;;;;;;1.10;0.40;;;12.50;99.90;;;;;;4892560;29;20190;-75
2023/01/12 11:15:01;;;;;;;1.70;0.80;;;12.50;99.90;;;;;;4880920;29;20286;-74
2023/01/12 11:18:02;;;;;;;1.35;0.60;;;12.60;99.90;;;;;;4894090;29;20179;-75
2023/01/12 11:20:36;;;;;;;1.38;0.50;;;12.70;99.90;;;;;;4880159;29;20251;-73
2023/01/12 11:23:07;;;;;;;1.20;0.60;;;12.80;99.90;;;;;;4898517;29;20265;-74
2023/01/12 11:25:44;;;;;;;0.77;0.40;;;12.80;99.90;;;;;;4899365;29;20262;-75
2023/01/12 11:28:33;;;;;;;1.63;0.65;;;12.80;99.90;;;;;;4899363;29;20182;-74
2023/01/12 11:31:28;;;;;;;1.58;0.40;;;12.90;99.90;;;;;;4893763;29;20274;-70
2023/01/12 11:34:04;;;;;;;2.15;0.60;;;12.90;99.90;;;;;;4885603;29;20272;-71
2023/01/12 11:36:45;;;;;;;1.08;0.60;;;13.00;99.90;;;;;;4895983;29;20203;-72
2023/01/12 11:39:19;;;;;;;1.77;0.40;;;13.00;99.90;;;;;;4896321;29;20233;-71
2023/01/12 11:45:18;;;;;;;2.22;0.50;;;13.10;99.90;;;;;;4908265;29;20249;-73
2023/01/12 11:47:51;;;;;;;2.33;0.50;;;13.10;99.90;;;;;;4917813;29;20229;-71
2023/01/12 11:50:24;;;;;;;0.75;0.40;;;13.20;99.90;;;;;;4887680;29;20339;-73
2023/01/12 11:52:51;;;;;;;1.95;0.70;;;13.20;99.90;;;;;;4898581;29;20293;-73
2023/01/12 11:55:52;;;;;;;1.55;0.50;;;13.20;99.90;;;;;;4899074;29;20201;-73
2023/01/12 11:58:52;;;;;;;1.88;0.75;;;13.30;99.90;;;;;;4901386;29;20273;-71
2023/01/12 12:01:34;;;;;;;2.47;0.77;;;13.30;99.90;;;;;;4894895;29;20191;-70
2023/01/12 12:04:16;;;;;;;0.93;0.60;;;13.40;99.90;;;;;;4891423;29;20191;-72
2023/01/12 12:06:52;;;;;;;1.85;0.50;;;13.40;99.90;;;;;;4898311;29;20179;-71
2023/01/12 12:10:05;;;;;;;2.67;0.80;;;13.40;99.90;;;;;;4887001;29;20258;-72
2023/01/12 12:12:33;;;;;;;0.95;0.70;;;13.40;99.90;;;;;;4877358;29;20195;-71
2023/01/12 12:15:26;;;;;;;1.23;0.60;;;13.40;99.90;;;;;;4902039;29;20209;-71
2023/01/12 12:17:52;;;;;;;3.22;1.00;;;13.50;99.90;;;;;;4885606;29;20210;-72
2023/01/12 12:20:20;;;;;;;2.10;0.75;;;13.50;99.90;;;;;;4892544;29;20183;-73
2023/01/12 12:23:08;;;;;;;1.98;0.60;;;13.50;99.90;;;;;;4902117;29;20199;-72
2023/01/12 12:25:43;;;;;;;0.60;0.47;;;13.50;99.90;;;;;;4902285;29;20179;-72
2023/01/12 12:28:22;;;;;;;1.20;0.60;;;13.40;99.90;;;;;;4901778;29;20173;-72
2023/01/12 12:30:57;;;;;;;0.82;0.40;;;13.40;99.90;;;;;;4901952;29;20208;-73
2023/01/12 12:33:53;;;;;;;1.30;0.60;;;13.40;99.90;;;;;;4901787;29;20265;-72
2023/01/12 12:36:42;;;;;;;1.67;0.50;;;13.40;99.90;;;;;;4898614;29;20231;-71
2023/01/12 12:39:14;;;;;;;0.90;0.50;;;13.40;99.90;;;;;;4898499;29;20206;-71
2023/01/12 12:45:20;;;;;;;1.05;0.50;;;13.40;99.90;;;;;;4907860;29;20222;-72
2023/01/12 12:48:04;;;;;;;0.55;0.40;;;13.40;99.90;;;;;;4885108;29;20183;-72
2023/01/12 12:50:52;;;;;;;1.65;0.50;;;13.40;99.90;;;;;;4901849;29;20202;-72
2023/01/12 12:53:34;;;;;;;1.23;0.60;;;13.40;99.90;;;;;;4901625;29;20262;-72
2023/01/12 12:56:13;;;;;;;0.80;0.40;;;13.40;99.90;;;;;;4901428;29;20206;-71
2023/01/12 12:58:40;;;;;;;2.38;0.32;;;13.30;99.90;;;;;;4901443;29;20182;-71
2023/01/12 13:01:25;;;;;;;1.30;0.60;;;13.30;99.90;;;;;;4901472;29;20205;-72
2023/01/12 13:03:57;;;;;;;0.90;0.60;;;13.10;99.90;;;;;;4901553;29;20273;-74
2023/01/12 13:06:37;;;;;;;0.70;0.43;;;13.00;99.90;;;;;;4901691;29;20202;-73
2023/01/12 13:09:15;;;;;;;0.70;0.50;;;12.90;99.90;;;;;;4896424;29;20194;-74
2023/01/12 13:11:54;;;;;;;0.60;0.30;;;12.80;99.90;;;;;;4882571;29;20231;-73
2023/01/12 13:14:29;;;;;;;1.33;0.55;;;12.70;99.90;;;;;;4882315;29;20254;-74
2023/01/12 13:16:58;;;;;;;0.98;0.50;;;12.60;99.90;;;;;;4895935;29;20285;-72
2023/01/12 13:19:38;;;;;;;0.20;0.20;;;12.60;99.90;;;;;;4898111;29;20191;-74
2023/01/12 13:22:29;;;;;;;0.30;0.30;;;12.50;99.90;;;;;;4888754;29;20222;-72
2023/01/12 13:24:57;;;;;;;0.85;0.40;;;12.50;99.90;;;;;;4901445;29;20189;-73
2023/01/12 13:27:54;;;;;;;0.47;0.45;;;12.40;99.90;;;;;;4901225;29;20203;-73
2023/01/12 13:30:25;;;;;;;0.73;0.40;;;12.40;99.90;;;;;;4889774;29;20182;-73
2023/01/12 13:33:15;;;;;;;0.63;0.40;;;12.40;99.90;;;;;;4897574;29;20298;-73
2023/01/12 13:35:43;;;;;;;0.63;0.30;;;12.50;99.90;;;;;;4898707;29;20202;-73
2023/01/12 13:38:35;;;;;;;1.02;0.40;;;12.50;99.90;;;;;;4888384;29;20297;-72
2023/01/12 13:41:16;;;;;;;0.98;0.40;;;12.60;99.90;;;;;;4895233;29;20211;-73
2023/01/12 13:43:56;;;;;;;0.70;0.40;;;12.70;99.90;;;;;;4900622;29;20233;-73
2023/01/12 13:46:36;;;;;;;0.40;0.40;;;12.80;99.90;;;;;;4897255;29;20175;-73
2023/01/12 13:49:13;;;;;;;1.02;0.40;;;12.80;99.90;;;;;;4883464;29;20181;-71
2023/01/12 13:51:53;;;;;;;0.63;0.22;;;12.90;99.90;;;;;;4882135;29;20198;-73
2023/01/12 13:54:21;;;;;;;1.17;0.40;;;12.90;99.90;;;;;;4883060;29;20186;-72
2023/01/12 13:57:01;;;;;;;0.30;0.10;;;12.90;99.90;;;;;;4881738;29;20175;-72